createdAt,value
2023-07-07T00:01:11.392Z,64.32
2023-07-07T00:03:37.926Z,65.07
2023-07-07T00:06:04.622Z,64.48
2023-07-07T00:08:31.058Z,64.26
2023-07-07T00:10:59.742Z,64.26
2023-07-07T00:13:27.378Z,64.88
2023-07-07T00:16:01.302Z,64.85
2023-07-07T00:18:28.184Z,65.18
2023-07-07T00:20:58.459Z,66.03
2023-07-07T00:23:26.024Z,65.68
2023-07-07T00:26:19.474Z,66.96
2023-07-07T00:28:45.938Z,66.19
2023-07-07T00:31:12.856Z,66.37
2023-07-07T00:33:39.348Z,65.50
2023-07-07T00:36:08.587Z,68.61
2023-07-07T00:38:35.507Z,66.56
2023-07-07T00:41:06.835Z,66.66
2023-07-07T00:43:33.662Z,68.34
2023-07-07T00:46:01.301Z,68.81
2023-07-07T00:48:33.820Z,69.00
2023-07-07T00:51:19.514Z,69.19
2023-07-07T00:53:51.280Z,69.84
2023-07-07T00:56:24.657Z,70.01
2023-07-07T00:58:52.045Z,71.00
2023-07-07T01:01:23.988Z,71.09
2023-07-07T01:03:54.122Z,71.62
2023-07-07T01:06:27.287Z,72.87
2023-07-07T01:09:04.116Z,71.45
2023-07-07T01:11:31.411Z,72.18
2023-07-07T01:14:00.601Z,72.64
2023-07-07T01:16:33.125Z,72.53
2023-07-07T01:19:18.591Z,72.88
2023-07-07T01:22:20.013Z,73.51
2023-07-07T01:24:58.982Z,73.31
2023-07-07T01:27:44.154Z,74.25
2023-07-07T01:30:33.431Z,72.48
2023-07-07T01:33:04.861Z,74.10
2023-07-07T01:35:31.385Z,75.29
2023-07-07T01:38:00.949Z,74.54
2023-07-07T01:40:44.298Z,76.22
2023-07-07T01:43:21.237Z,75.13
2023-07-07T01:46:02.499Z,75.54
2023-07-07T01:48:42.618Z,75.29
2023-07-07T01:51:14.522Z,75.26
2023-07-07T01:53:43.596Z,76.76
2023-07-07T01:56:11.482Z,74.59
2023-07-07T01:58:40.369Z,75.07
2023-07-07T02:01:07.448Z,76.13
2023-07-07T02:03:33.919Z,75.23
2023-07-07T02:06:00.443Z,76.00
2023-07-07T02:08:26.914Z,75.85
2023-07-07T02:10:53.373Z,77.14
2023-07-07T02:13:20.015Z,76.55
2023-07-07T02:15:49.084Z,75.57
2023-07-07T02:18:15.799Z,77.00
2023-07-07T02:20:44.742Z,75.40
2023-07-07T02:23:11.175Z,77.57
2023-07-07T02:25:37.792Z,77.23
2023-07-07T02:28:04.499Z,76.52
2023-07-07T02:30:38.587Z,78.02
2023-07-07T02:33:09.821Z,77.48
2023-07-07T02:35:36.967Z,77.08
2023-07-07T02:38:03.507Z,77.93
2023-07-07T02:40:30.944Z,77.22
2023-07-07T02:42:59.809Z,77.83
2023-07-07T02:45:26.273Z,77.67
2023-07-07T02:47:55.620Z,78.53
2023-07-07T02:50:27.113Z,78.36
2023-07-07T02:52:53.536Z,79.01
2023-07-07T02:55:20.054Z,78.51
2023-07-07T02:57:49.084Z,80.07
2023-07-07T03:00:15.540Z,79.83
2023-07-07T03:02:42.929Z,79.51
2023-07-07T03:05:09.938Z,80.08
2023-07-07T03:07:36.360Z,79.30
2023-07-07T03:10:03.005Z,80.04
2023-07-07T03:12:29.410Z,79.38
2023-07-07T03:14:55.905Z,79.48
2023-07-07T03:17:23.348Z,80.10
2023-07-07T03:19:50.265Z,80.62
2023-07-07T03:22:17.105Z,80.45
2023-07-07T03:24:43.712Z,81.25
2023-07-07T03:27:10.097Z,81.22
2023-07-07T03:29:41.434Z,81.15
2023-07-07T03:32:08.485Z,81.39
2023-07-07T03:34:37.668Z,81.24
2023-07-07T03:37:06.535Z,80.66
2023-07-07T03:39:35.660Z,81.35
2023-07-07T03:42:02.255Z,81.03
2023-07-07T03:44:28.754Z,81.92
2023-07-07T03:46:55.264Z,81.78
2023-07-07T03:49:21.907Z,82.04
2023-07-07T03:51:48.385Z,81.56
2023-07-07T03:54:18.891Z,81.22
2023-07-07T03:56:47.754Z,81.65
2023-07-07T03:59:14.607Z,81.00
2023-07-07T04:01:44.118Z,82.35
2023-07-07T04:04:10.771Z,82.47
2023-07-07T04:06:38.488Z,82.96
2023-07-07T04:09:09.655Z,83.19
2023-07-07T04:11:36.125Z,82.74
2023-07-07T04:14:05.017Z,80.82
2023-07-07T04:16:34.635Z,78.04
2023-07-07T04:19:01.176Z,81.09
2023-07-07T04:21:29.420Z,78.01
2023-07-07T04:23:57.697Z,78.36
2023-07-07T04:26:26.167Z,76.32
2023-07-07T04:28:53.858Z,75.47
2023-07-07T04:31:22.416Z,76.75
2023-07-07T04:33:49.019Z,75.79
2023-07-07T04:36:15.576Z,75.88
2023-07-07T04:38:45.866Z,75.23
2023-07-07T04:41:18.868Z,75.51
2023-07-07T04:43:50.464Z,76.38
2023-07-07T04:46:21.473Z,74.96
2023-07-07T04:48:49.296Z,73.95
2023-07-07T04:51:21.783Z,74.79
2023-07-07T04:53:48.568Z,74.15
2023-07-07T04:56:21.334Z,72.54
2023-07-07T04:58:50.397Z,73.70
2023-07-07T05:01:28.112Z,72.09
2023-07-07T05:04:01.761Z,71.51
2023-07-07T05:06:32.308Z,71.85
2023-07-07T05:08:59.131Z,71.79
2023-07-07T05:11:29.042Z,69.86
2023-07-07T05:13:58.757Z,69.52
2023-07-07T05:16:28.967Z,66.79
2023-07-07T05:18:55.749Z,65.83
2023-07-07T05:21:25.725Z,64.67
2023-07-07T05:23:55.643Z,64.11
2023-07-07T05:26:24.105Z,63.87
2023-07-07T05:28:52.750Z,63.15
2023-07-07T05:31:19.662Z,62.66
2023-07-07T05:33:48.534Z,62.44
2023-07-07T05:36:15.036Z,61.30
2023-07-07T05:38:42.703Z,63.00
2023-07-07T05:41:11.887Z,61.33
2023-07-07T05:43:38.653Z,60.69
2023-07-07T05:46:13.154Z,62.22
2023-07-07T05:48:40.238Z,61.50
2023-07-07T05:51:08.942Z,60.91
2023-07-07T05:53:36.261Z,61.69
2023-07-07T05:56:08.312Z,58.83
2023-07-07T05:58:37.707Z,60.19
2023-07-07T06:01:04.871Z,59.44
2023-07-07T06:03:31.973Z,59.54
2023-07-07T06:05:59.053Z,58.90
2023-07-07T06:08:25.428Z,59.93
2023-07-07T06:10:52.405Z,57.82
2023-07-07T06:13:19.355Z,54.66
2023-07-07T06:15:48.726Z,55.82
2023-07-07T06:18:15.312Z,55.13
2023-07-07T06:20:41.794Z,57.03
2023-07-07T06:23:09.800Z,56.94
2023-07-07T06:25:36.288Z,56.33
2023-07-07T06:28:02.823Z,57.21
2023-07-07T06:30:30.057Z,54.64
2023-07-07T06:32:59.905Z,52.53
2023-07-07T06:35:27.573Z,52.98
2023-07-07T06:37:54.064Z,54.78
2023-07-07T06:40:20.500Z,55.02
2023-07-07T06:42:47.693Z,54.08
2023-07-07T06:45:14.267Z,51.93
2023-07-07T06:47:40.764Z,51.63
2023-07-07T06:50:07.778Z,53.37
2023-07-07T06:52:34.214Z,49.79
2023-07-07T06:55:00.625Z,52.44
2023-07-07T06:57:27.155Z,51.39
2023-07-07T06:59:53.583Z,50.46
2023-07-07T07:02:20.040Z,49.42
2023-07-07T07:04:47.359Z,50.77
2023-07-07T07:07:14.019Z,52.55
2023-07-07T07:09:40.393Z,49.25
2023-07-07T07:12:07.474Z,50.92
2023-07-07T07:14:33.880Z,51.19
2023-07-07T07:17:00.438Z,51.33
2023-07-07T07:19:29.101Z,50.53
2023-07-07T07:21:55.611Z,49.20
2023-07-07T07:24:25.910Z,46.16
2023-07-07T07:26:52.409Z,47.90
2023-07-07T07:29:18.935Z,47.90
2023-07-07T07:31:45.343Z,46.98
2023-07-07T07:34:30.281Z,46.96
2023-07-07T07:37:00.161Z,44.01
2023-07-07T07:39:27.856Z,46.29
2023-07-07T07:41:57.164Z,45.44
2023-07-07T07:44:26.292Z,45.88
2023-07-07T07:46:54.694Z,44.97
2023-07-07T07:49:23.477Z,44.75
2023-07-07T07:51:49.953Z,44.49
2023-07-07T07:54:19.601Z,42.56
2023-07-07T07:56:47.221Z,40.81
2023-07-07T07:59:14.165Z,43.40
2023-07-07T08:01:41.003Z,44.07
2023-07-07T08:04:07.876Z,42.13
2023-07-07T08:06:35.416Z,45.18
2023-07-07T08:09:02.249Z,43.94
2023-07-07T08:11:43.933Z,42.52
2023-07-07T08:14:11.311Z,42.18
2023-07-07T08:16:37.805Z,40.23
2023-07-07T08:21:38.667Z,39.33
2023-07-07T08:24:08.991Z,39.79
2023-07-07T08:26:36.956Z,39.56
2023-07-07T08:29:06.277Z,37.74
2023-07-07T08:31:33.992Z,39.53
2023-07-07T08:34:02.750Z,38.07
2023-07-07T08:36:32.563Z,38.82
2023-07-07T08:39:11.665Z,38.34
2023-07-07T08:41:39.134Z,38.30
2023-07-07T08:44:05.846Z,38.12
2023-07-07T08:46:48.478Z,38.92
2023-07-07T08:49:22.282Z,39.39
2023-07-07T08:52:02.865Z,37.08
2023-07-07T08:54:41.757Z,37.43
2023-07-07T08:57:11.639Z,35.20
2023-07-07T09:00:05.348Z,37.38
2023-07-07T09:02:52.986Z,37.82
2023-07-07T09:05:57.004Z,39.26
2023-07-07T09:08:41.804Z,35.72
2023-07-07T09:11:57.881Z,34.76
2023-07-07T09:14:28.059Z,36.21
2023-07-07T09:16:59.871Z,36.96
2023-07-07T09:19:37.823Z,34.97
2023-07-07T09:22:22.598Z,35.75
2023-07-07T09:25:06.735Z,35.59
2023-07-07T09:27:42.454Z,36.77
2023-07-07T09:30:21.023Z,35.94
2023-07-07T09:32:51.453Z,34.18
2023-07-07T09:35:23.492Z,36.15
2023-07-07T09:38:23.006Z,34.21
2023-07-07T09:41:00.298Z,35.12
2023-07-07T09:43:59.039Z,34.32
2023-07-07T09:46:36.051Z,33.63
2023-07-07T09:49:23.682Z,35.24
2023-07-07T09:52:02.795Z,31.69
2023-07-07T09:54:32.607Z,34.95
2023-07-07T09:57:16.582Z,33.41
2023-07-07T09:59:46.678Z,35.10
2023-07-07T10:02:17.974Z,32.32
2023-07-07T10:04:49.302Z,32.83
2023-07-07T10:07:18.457Z,33.50
2023-07-07T10:09:47.538Z,33.31
2023-07-07T10:12:25.978Z,34.17
2023-07-07T10:14:56.165Z,31.96
2023-07-07T10:17:47.622Z,32.94
2023-07-07T10:20:14.065Z,31.47
2023-07-07T10:22:40.558Z,33.14
2023-07-07T10:25:13.690Z,33.54
2023-07-07T10:27:50.326Z,33.37
2023-07-07T10:30:19.702Z,32.27
2023-07-07T10:32:49.530Z,32.67
2023-07-07T10:35:25.153Z,32.49
2023-07-07T10:37:53.994Z,34.62
2023-07-07T10:40:25.923Z,32.39
2023-07-07T10:42:55.205Z,29.90
2023-07-07T10:45:22.627Z,30.96
2023-07-07T10:47:49.337Z,28.13
2023-07-07T10:50:18.294Z,28.98
2023-07-07T10:55:36.038Z,29.29
2023-07-07T10:58:44.035Z,28.93
2023-07-07T11:01:40.455Z,30.52
2023-07-07T11:07:00.499Z,32.17
2023-07-07T11:09:45.537Z,29.74
2023-07-07T11:12:54.752Z,26.43
2023-07-07T11:15:32.262Z,31.26
2023-07-07T11:18:20.056Z,27.62
2023-07-07T11:21:18.938Z,28.83
2023-07-07T11:23:52.702Z,27.70
2023-07-07T11:26:19.286Z,28.78
2023-07-07T11:29:04.021Z,26.77
2023-07-07T11:32:12.326Z,26.45
2023-07-07T11:34:47.653Z,27.87
2023-07-07T11:37:23.490Z,27.94
2023-07-07T11:39:59.080Z,28.41
2023-07-07T11:42:29.150Z,26.18
2023-07-07T11:45:11.677Z,26.49
2023-07-07T11:47:57.153Z,25.57
2023-07-07T11:50:47.501Z,28.94
2023-07-07T11:53:36.016Z,27.59
2023-07-07T11:56:04.815Z,27.43
2023-07-07T11:59:03.571Z,27.74
2023-07-07T12:01:39.353Z,26.68
2023-07-07T12:04:34.344Z,26.59
2023-07-07T12:07:15.063Z,27.11
2023-07-07T12:09:45.699Z,26.64
2023-07-07T12:12:21.791Z,27.54
2023-07-07T12:15:13.573Z,26.13
2023-07-07T12:17:43.988Z,25.03
2023-07-07T12:20:21.428Z,27.39
2023-07-07T12:22:49.109Z,26.53
2023-07-07T12:25:30.430Z,27.05
2023-07-07T12:27:58.254Z,26.96
2023-07-07T12:30:33.536Z,26.86
2023-07-07T12:33:00.625Z,25.44
2023-07-07T12:35:37.184Z,23.95
2023-07-07T12:38:18.792Z,26.17
2023-07-07T12:40:46.336Z,26.46
2023-07-07T12:43:44.666Z,24.63
2023-07-07T12:46:20.498Z,24.64
2023-07-07T12:48:47.409Z,25.36
2023-07-07T12:51:16.199Z,26.50
2023-07-07T12:53:51.090Z,25.02
2023-07-07T12:56:20.686Z,24.42
2023-07-07T12:58:55.006Z,23.58
2023-07-07T13:01:37.494Z,23.45
2023-07-07T13:04:10.152Z,23.72
2023-07-07T13:06:46.415Z,25.02
2023-07-07T13:09:12.859Z,24.46
2023-07-07T13:11:44.884Z,24.37
2023-07-07T13:14:35.576Z,24.03
2023-07-07T13:17:09.534Z,25.08
2023-07-07T13:19:36.887Z,23.73
2023-07-07T13:22:18.526Z,24.17
2023-07-07T13:24:45.935Z,23.92
2023-07-07T13:27:18.689Z,22.62
2023-07-07T13:29:48.526Z,22.75
2023-07-07T13:32:39.164Z,22.49
2023-07-07T13:35:06.148Z,23.95
2023-07-07T13:37:33.893Z,23.34
2023-07-07T13:40:00.555Z,23.43
2023-07-07T13:42:36.275Z,24.87
2023-07-07T13:45:12.137Z,21.88
2023-07-07T13:47:43.810Z,21.44
2023-07-07T13:50:25.022Z,22.48
2023-07-07T13:52:56.113Z,23.43
2023-07-07T13:55:23.266Z,20.94
2023-07-07T13:57:49.944Z,21.23
2023-07-07T14:00:29.987Z,21.40
2023-07-07T14:02:57.317Z,22.07
2023-07-07T14:05:26.838Z,20.42
2023-07-07T14:07:58.261Z,21.37
2023-07-07T14:10:43.822Z,21.30
2023-07-07T14:13:22.731Z,20.47
2023-07-07T14:16:09.572Z,21.95
2023-07-07T14:18:41.403Z,20.16
2023-07-07T14:21:10.121Z,20.61
2023-07-07T14:23:39.561Z,21.49
2023-07-07T14:26:13.398Z,20.00
2023-07-07T14:28:40.800Z,21.12
2023-07-07T14:31:09.633Z,20.42
2023-07-07T14:33:55.471Z,20.00
2023-07-07T14:36:31.369Z,21.91
2023-07-07T14:38:59.000Z,20.68
2023-07-07T14:41:29.208Z,20.37
2023-07-07T14:43:55.818Z,21.38
2023-07-07T14:46:37.144Z,21.61
2023-07-07T14:49:20.865Z,22.52
2023-07-07T14:51:52.668Z,21.88
2023-07-07T14:54:26.946Z,21.77
2023-07-07T14:57:05.846Z,23.83
2023-07-07T14:59:35.805Z,21.93
2023-07-07T15:02:34.522Z,20.97
2023-07-07T15:05:20.441Z,21.50
2023-07-07T15:07:49.239Z,22.49
2023-07-07T15:10:15.923Z,20.72
2023-07-07T15:12:43.795Z,22.34
2023-07-07T15:15:14.541Z,22.75
2023-07-07T15:17:41.037Z,21.55
2023-07-07T15:20:16.242Z,21.72
2023-07-07T15:22:43.127Z,23.02
2023-07-07T15:25:10.156Z,22.38
2023-07-07T15:27:39.560Z,24.42
2023-07-07T15:30:17.469Z,22.59
2023-07-07T15:32:45.466Z,25.95
2023-07-07T15:35:17.171Z,23.84
2023-07-07T15:37:47.233Z,23.50
2023-07-07T15:40:22.032Z,21.97
2023-07-07T15:42:53.984Z,21.34
2023-07-07T15:45:20.566Z,21.41
2023-07-07T15:47:47.274Z,22.99
2023-07-07T15:50:20.453Z,22.08
2023-07-07T15:52:47.096Z,20.94
2023-07-07T15:55:13.669Z,19.73
2023-07-07T15:57:42.364Z,21.07
2023-07-07T16:00:31.747Z,20.67
2023-07-07T16:02:59.047Z,21.77
2023-07-07T16:05:28.100Z,21.43
2023-07-07T16:07:54.638Z,22.18
2023-07-07T16:10:21.260Z,20.91
2023-07-07T16:12:47.684Z,20.62
2023-07-07T16:15:16.443Z,22.09
2023-07-07T16:17:50.107Z,21.68
2023-07-07T16:20:22.027Z,21.42
2023-07-07T16:23:02.363Z,21.64
2023-07-07T16:25:29.666Z,20.95
2023-07-07T16:27:56.895Z,20.62
2023-07-07T16:30:29.062Z,22.84
2023-07-07T16:32:55.694Z,21.91
2023-07-07T16:35:23.329Z,21.08
2023-07-07T16:37:52.111Z,21.17
2023-07-07T16:40:21.139Z,21.26
2023-07-07T16:42:49.269Z,21.17
2023-07-07T16:45:19.396Z,20.47
2023-07-07T16:47:46.401Z,21.52
2023-07-07T16:50:30.239Z,22.46
2023-07-07T16:52:58.507Z,20.75
2023-07-07T16:55:28.484Z,22.29
2023-07-07T16:57:55.328Z,21.91
2023-07-07T17:00:23.231Z,21.14
2023-07-07T17:02:52.897Z,22.11
2023-07-07T17:05:22.183Z,20.93
2023-07-07T17:07:51.271Z,21.59
2023-07-07T17:10:41.236Z,21.25
2023-07-07T17:13:07.804Z,21.98
2023-07-07T17:15:41.697Z,22.05
2023-07-07T17:18:13.340Z,21.43
2023-07-07T17:20:40.224Z,21.48
2023-07-07T17:23:09.164Z,21.21
2023-07-07T17:25:35.654Z,22.39
2023-07-07T17:28:02.232Z,21.23
2023-07-07T17:30:32.233Z,22.09
2023-07-07T17:32:58.827Z,21.42
2023-07-07T17:35:29.223Z,21.87
2023-07-07T17:37:55.758Z,21.47
2023-07-07T17:40:39.472Z,21.53
2023-07-07T17:43:05.989Z,22.12
2023-07-07T17:45:34.766Z,23.00
2023-07-07T17:48:01.308Z,22.68
2023-07-07T17:50:40.990Z,22.62
2023-07-07T17:53:07.548Z,22.32
2023-07-07T17:55:34.085Z,22.50
2023-07-07T17:58:00.836Z,22.27
2023-07-07T18:00:35.441Z,22.87
2023-07-07T18:03:01.949Z,22.57
2023-07-07T18:05:30.167Z,22.24
2023-07-07T18:07:59.210Z,22.51
2023-07-07T18:10:31.711Z,22.43
2023-07-07T18:13:00.490Z,22.52
2023-07-07T18:15:28.841Z,22.53
2023-07-07T18:18:19.152Z,23.33
2023-07-07T18:21:13.832Z,24.31
2023-07-07T18:23:31.563Z,23.37
2023-07-07T18:25:58.469Z,23.98
2023-07-07T18:28:27.490Z,24.06
2023-07-07T18:30:57.353Z,23.88
2023-07-07T18:33:24.782Z,23.96
2023-07-07T18:35:51.524Z,25.33
2023-07-07T18:38:22.811Z,25.06
2023-07-07T18:40:49.669Z,27.31
2023-07-07T18:43:19.787Z,26.07
2023-07-07T18:45:46.273Z,25.55
2023-07-07T18:48:18.076Z,27.16
2023-07-07T18:50:47.934Z,25.64
2023-07-07T18:53:18.137Z,26.70
2023-07-07T18:55:46.122Z,26.03
2023-07-07T18:58:17.153Z,26.67
2023-07-07T19:00:44.212Z,26.70
2023-07-07T19:03:15.214Z,27.32
2023-07-07T19:05:41.886Z,26.70
2023-07-07T19:08:13.029Z,26.44
2023-07-07T19:10:43.327Z,26.86
2023-07-07T19:13:18.529Z,26.90
2023-07-07T19:15:51.435Z,28.74
2023-07-07T19:18:24.536Z,29.91
2023-07-07T19:20:53.464Z,29.90
2023-07-07T19:23:19.918Z,31.08
2023-07-07T19:25:46.596Z,31.45
2023-07-07T19:28:20.208Z,32.32
2023-07-07T19:30:46.626Z,32.77
2023-07-07T19:33:18.621Z,32.31
2023-07-07T19:35:46.384Z,32.47
2023-07-07T19:38:21.374Z,33.81
2023-07-07T19:40:57.591Z,34.26
2023-07-07T19:43:24.012Z,35.25
2023-07-07T19:45:54.901Z,35.82
2023-07-07T19:48:21.801Z,35.65
2023-07-07T19:50:55.010Z,33.86
2023-07-07T19:53:28.684Z,33.95
2023-07-07T19:55:56.364Z,33.42
2023-07-07T19:58:24.930Z,32.77
2023-07-07T20:00:51.679Z,34.47
2023-07-07T20:03:18.215Z,32.60
2023-07-07T20:05:44.898Z,32.44
2023-07-07T20:08:16.238Z,31.79
2023-07-07T20:10:43.969Z,34.08
2023-07-07T20:13:11.232Z,32.04
2023-07-07T20:15:39.301Z,32.95
2023-07-07T20:18:07.110Z,34.48
2023-07-07T20:20:33.534Z,33.61
2023-07-07T20:23:00.186Z,34.28
2023-07-07T20:25:28.131Z,32.63
2023-07-07T20:27:56.928Z,33.49
2023-07-07T20:30:27.323Z,34.27
2023-07-07T20:32:56.540Z,33.01
2023-07-07T20:35:23.490Z,32.13
2023-07-07T20:37:53.312Z,32.69
2023-07-07T20:40:24.269Z,32.20
2023-07-07T20:42:51.676Z,32.31
2023-07-07T20:45:22.728Z,33.07
2023-07-07T20:47:49.168Z,31.98
2023-07-07T20:50:26.237Z,32.30
2023-07-07T20:52:52.629Z,32.05
2023-07-07T20:55:20.003Z,33.70
2023-07-07T20:57:48.181Z,31.57
2023-07-07T21:00:23.881Z,31.76
2023-07-07T21:02:50.693Z,31.67
2023-07-07T21:05:18.240Z,31.15
2023-07-07T21:07:45.203Z,31.06
2023-07-07T21:10:25.465Z,30.75
2023-07-07T21:12:54.644Z,30.78
2023-07-07T21:15:25.054Z,30.60
2023-07-07T21:17:54.221Z,31.16
2023-07-07T21:20:31.103Z,31.59
2023-07-07T21:23:06.407Z,31.24
2023-07-07T21:25:33.077Z,30.55
2023-07-07T21:28:03.673Z,31.20
2023-07-07T21:30:30.532Z,30.78
2023-07-07T21:32:58.233Z,31.15
2023-07-07T21:35:24.657Z,31.16
2023-07-07T21:37:51.190Z,30.72
2023-07-07T21:40:22.209Z,31.31
2023-07-07T21:42:49.929Z,30.89
2023-07-07T21:45:22.689Z,31.26
2023-07-07T21:47:52.713Z,30.94
2023-07-07T21:50:20.802Z,32.34
2023-07-07T21:52:48.321Z,31.45
2023-07-07T21:55:17.184Z,31.55
2023-07-07T21:57:50.941Z,31.33
2023-07-07T22:00:19.605Z,31.02
2023-07-07T22:02:48.637Z,30.73
2023-07-07T22:05:15.737Z,31.18
2023-07-07T22:07:43.202Z,31.20
2023-07-07T22:10:27.945Z,30.88
2023-07-07T22:12:56.900Z,30.89
2023-07-07T22:15:24.097Z,31.04
2023-07-07T22:17:50.758Z,31.28
2023-07-07T22:20:35.602Z,31.86
2023-07-07T22:23:03.515Z,30.97
2023-07-07T22:25:34.277Z,30.88
2023-07-07T22:28:02.153Z,31.37
2023-07-07T22:30:35.963Z,31.15
2023-07-07T22:33:04.228Z,30.95
2023-07-07T22:35:31.249Z,31.25
2023-07-07T22:37:59.958Z,30.80
2023-07-07T22:40:34.480Z,31.22
2023-07-07T22:43:00.994Z,30.67
2023-07-07T22:45:28.309Z,30.89
2023-07-07T22:47:55.256Z,30.96
2023-07-07T22:50:25.183Z,30.98
2023-07-07T22:52:52.110Z,30.73
2023-07-07T22:55:30.264Z,31.51
2023-07-07T22:57:56.749Z,30.88
2023-07-07T23:00:25.432Z,31.22
2023-07-07T23:02:54.176Z,31.07
2023-07-07T23:05:22.250Z,31.28
2023-07-07T23:07:51.145Z,31.37
2023-07-07T23:10:24.922Z,31.30
2023-07-07T23:12:53.021Z,31.49
2023-07-07T23:15:21.225Z,31.05
2023-07-07T23:17:48.846Z,31.52
2023-07-07T23:20:23.561Z,31.32
2023-07-07T23:22:57.504Z,31.07
2023-07-07T23:25:26.678Z,31.01
2023-07-07T23:28:03.080Z,30.97
2023-07-07T23:30:40.000Z,31.08
2023-07-07T23:33:11.007Z,31.19
2023-07-07T23:35:44.134Z,31.01
2023-07-07T23:38:14.357Z,31.67
2023-07-07T23:40:40.981Z,31.48
2023-07-07T23:43:09.488Z,31.81
2023-07-07T23:45:36.292Z,31.78
2023-07-07T23:48:06.255Z,31.78
2023-07-07T23:50:39.137Z,32.74
2023-07-07T23:53:05.561Z,32.43
2023-07-07T23:55:32.520Z,33.87
2023-07-07T23:58:00.948Z,34.45
